createdAt,value
2022-10-05T00:01:01.295Z,11.66
2022-10-05T00:06:11.327Z,11.65
2022-10-05T00:11:15.262Z,11.64
2022-10-05T00:16:20.799Z,11.65
2022-10-05T00:21:27.032Z,11.64
2022-10-05T00:26:33.271Z,11.62
2022-10-05T00:31:36.626Z,11.60
2022-10-05T00:36:40.460Z,11.57
2022-10-05T00:42:18.587Z,11.53
2022-10-05T00:47:30.104Z,11.55
2022-10-05T00:52:50.399Z,11.58
2022-10-05T00:58:11.324Z,11.59
2022-10-05T01:03:17.776Z,11.60
2022-10-05T01:08:30.347Z,11.60
2022-10-05T01:13:49.634Z,11.61
2022-10-05T01:18:52.432Z,11.61
2022-10-05T01:24:26.271Z,11.62
2022-10-05T01:29:44.013Z,11.59
2022-10-05T01:35:06.984Z,11.64
2022-10-05T01:40:31.503Z,11.63
2022-10-05T01:45:53.275Z,11.68
2022-10-05T01:51:30.971Z,11.71
2022-10-05T01:56:44.179Z,11.76
2022-10-05T02:02:11.445Z,11.76
2022-10-05T02:07:28.983Z,11.80
2022-10-05T02:12:37.676Z,11.84
2022-10-05T02:18:06.999Z,11.89
2022-10-05T02:23:14.845Z,11.87
2022-10-05T02:28:28.346Z,11.80
2022-10-05T02:33:33.176Z,11.79
2022-10-05T02:38:48.207Z,11.80
2022-10-05T02:44:02.066Z,11.79
2022-10-05T02:49:13.880Z,11.74
2022-10-05T02:54:40.279Z,11.73
2022-10-05T03:00:09.464Z,11.77
2022-10-05T03:05:58.954Z,11.78
2022-10-05T03:11:34.128Z,11.80
2022-10-05T03:16:50.321Z,11.81
2022-10-05T03:21:55.898Z,11.81
2022-10-05T03:27:04.738Z,11.76
2022-10-05T03:32:30.069Z,11.75
2022-10-05T03:37:48.106Z,11.74
2022-10-05T03:43:26.052Z,11.67
2022-10-05T03:48:50.154Z,11.70
2022-10-05T03:54:05.225Z,11.72
2022-10-05T03:59:19.104Z,11.68
2022-10-05T04:04:48.547Z,11.64
2022-10-05T04:09:54.809Z,11.66
2022-10-05T04:15:02.532Z,11.66
2022-10-05T04:20:29.376Z,11.71
2022-10-05T04:25:46.006Z,11.69
2022-10-05T04:30:52.399Z,11.68
2022-10-05T04:36:01.404Z,11.67
2022-10-05T04:41:16.549Z,11.63
2022-10-05T04:47:11.113Z,11.71
2022-10-05T04:52:13.867Z,11.76
2022-10-05T04:57:23.850Z,11.75
2022-10-05T05:02:45.587Z,11.76
2022-10-05T05:08:11.011Z,11.72
2022-10-05T05:13:38.901Z,11.82
2022-10-05T05:18:56.959Z,11.84
2022-10-05T05:24:27.410Z,11.97
2022-10-05T05:30:08.715Z,12.05
2022-10-05T05:35:32.201Z,12.16
2022-10-05T05:40:42.374Z,12.24
2022-10-05T05:45:59.210Z,12.34
2022-10-05T05:51:09.344Z,12.47
2022-10-05T05:56:24.380Z,12.61
2022-10-05T06:01:35.001Z,12.80
2022-10-05T06:06:42.644Z,13.01
2022-10-05T06:11:53.457Z,13.20
2022-10-05T06:17:29.233Z,13.42
2022-10-05T06:22:43.709Z,13.49
2022-10-05T06:28:13.619Z,13.59
2022-10-05T06:33:56.586Z,13.67
2022-10-05T06:39:14.751Z,13.67
2022-10-05T06:44:39.979Z,13.70
2022-10-05T06:49:50.356Z,13.78
2022-10-05T06:55:14.162Z,13.91
2022-10-05T07:00:23.474Z,14.19
2022-10-05T07:05:44.945Z,14.60
2022-10-05T07:11:15.809Z,15.87
2022-10-05T07:16:30.571Z,17.00
2022-10-05T07:21:50.165Z,17.09
2022-10-05T07:27:18.377Z,17.04
2022-10-05T07:32:47.804Z,16.98
2022-10-05T07:37:57.185Z,16.83
2022-10-05T07:43:14.481Z,16.66
2022-10-05T07:48:19.789Z,16.77
2022-10-05T07:53:40.278Z,17.28
2022-10-05T07:58:57.108Z,17.59
2022-10-05T08:04:27.772Z,17.85
2022-10-05T08:09:55.835Z,17.79
2022-10-05T08:15:23.720Z,17.92
2022-10-05T08:20:33.317Z,17.79
2022-10-05T08:25:59.459Z,17.62
2022-10-05T08:31:21.695Z,17.57
2022-10-05T08:36:44.059Z,17.61
2022-10-05T08:42:11.247Z,17.91
2022-10-05T08:47:48.256Z,18.15
2022-10-05T08:53:36.520Z,17.87
2022-10-05T08:58:49.766Z,17.60
2022-10-05T09:04:25.645Z,17.31
2022-10-05T09:10:03.159Z,17.05
2022-10-05T09:15:26.286Z,16.82
2022-10-05T09:20:37.029Z,16.84
2022-10-05T09:25:59.795Z,16.75
2022-10-05T09:31:37.722Z,16.64
2022-10-05T09:36:46.565Z,16.74
2022-10-05T09:41:52.145Z,16.94
2022-10-05T09:47:12.544Z,17.10
2022-10-05T09:52:19.182Z,17.23
2022-10-05T09:57:53.359Z,17.34
2022-10-05T10:03:02.565Z,17.37
2022-10-05T10:08:39.732Z,17.72
2022-10-05T10:14:04.654Z,18.02
2022-10-05T10:19:37.971Z,18.44
2022-10-05T10:24:43.860Z,18.75
2022-10-05T10:30:11.122Z,18.95
2022-10-05T10:35:36.774Z,19.28
2022-10-05T10:40:57.170Z,19.06
2022-10-05T10:45:59.982Z,18.68
2022-10-05T10:51:12.496Z,18.47
2022-10-05T10:56:18.249Z,18.61
2022-10-05T11:01:30.324Z,19.05
2022-10-05T11:06:48.121Z,19.15
2022-10-05T11:12:22.122Z,18.72
2022-10-05T11:17:33.626Z,18.39
2022-10-05T11:22:46.783Z,18.19
2022-10-05T11:28:09.715Z,18.42
2022-10-05T11:33:32.273Z,18.81
2022-10-05T11:38:46.433Z,19.03
2022-10-05T11:43:52.310Z,18.69
2022-10-05T11:49:36.559Z,18.43
2022-10-05T11:55:10.875Z,18.42
2022-10-05T12:00:23.965Z,19.08
2022-10-05T12:05:48.578Z,19.28
2022-10-05T12:11:10.222Z,18.77
2022-10-05T12:16:27.013Z,18.36
2022-10-05T12:21:52.586Z,18.03
2022-10-05T12:27:13.922Z,17.81
2022-10-05T12:32:34.929Z,18.11
2022-10-05T12:37:53.418Z,18.63
2022-10-05T12:43:02.062Z,19.03
2022-10-05T12:48:23.608Z,19.21
2022-10-05T12:54:05.415Z,18.78
2022-10-05T12:59:19.371Z,18.45
2022-10-05T13:04:31.151Z,18.20
2022-10-05T13:09:48.844Z,18.11
2022-10-05T13:15:20.932Z,18.57
2022-10-05T13:20:39.190Z,18.83
2022-10-05T13:25:53.746Z,18.66
2022-10-05T13:31:20.139Z,18.10
2022-10-05T13:36:31.437Z,17.77
2022-10-05T13:42:19.604Z,18.02
2022-10-05T13:47:40.840Z,18.49
2022-10-05T13:52:58.578Z,18.66
2022-10-05T13:58:20.022Z,18.70
2022-10-05T14:03:38.179Z,18.68
2022-10-05T14:08:54.295Z,18.73
2022-10-05T14:14:10.408Z,18.56
2022-10-05T14:19:22.131Z,17.83
2022-10-05T14:24:50.471Z,17.50
2022-10-05T14:30:08.403Z,17.72
2022-10-05T14:35:13.027Z,17.80
2022-10-05T14:40:24.413Z,17.77
2022-10-05T14:45:33.539Z,17.76
2022-10-05T14:50:57.678Z,17.77
2022-10-05T14:56:29.759Z,17.68
2022-10-05T15:01:36.106Z,17.59
2022-10-05T15:07:04.328Z,17.37
2022-10-05T15:12:07.674Z,17.23
2022-10-05T15:17:31.227Z,17.05
2022-10-05T15:22:40.808Z,16.83
2022-10-05T15:27:59.624Z,16.77
2022-10-05T15:33:25.533Z,16.71
2022-10-05T15:39:00.459Z,16.57
2022-10-05T15:44:28.576Z,16.43
2022-10-05T15:49:43.574Z,16.26
2022-10-05T15:55:14.628Z,16.14
2022-10-05T16:00:20.054Z,15.96
2022-10-05T16:05:56.892Z,15.75
2022-10-05T16:11:01.138Z,15.52
2022-10-05T16:16:16.548Z,15.29
2022-10-05T16:21:22.500Z,15.06
2022-10-05T16:26:51.110Z,14.89
2022-10-05T16:32:16.437Z,14.72
2022-10-05T16:37:32.243Z,14.58
2022-10-05T16:42:42.199Z,14.51
2022-10-05T16:48:00.579Z,14.43
2022-10-05T16:53:18.027Z,14.36
2022-10-05T16:58:27.444Z,14.29
2022-10-05T17:03:42.478Z,14.26
2022-10-05T17:08:54.593Z,14.29
2022-10-05T17:14:29.750Z,14.30
2022-10-05T17:19:38.292Z,14.31
2022-10-05T17:25:09.154Z,14.35
2022-10-05T17:31:00.826Z,14.37
2022-10-05T17:36:08.717Z,14.37
2022-10-05T17:41:15.568Z,14.32
2022-10-05T17:46:38.784Z,14.20
2022-10-05T17:52:00.232Z,14.11
2022-10-05T17:57:03.032Z,14.04
2022-10-05T18:02:26.974Z,14.00
2022-10-05T18:07:32.156Z,13.97
2022-10-05T18:12:45.961Z,13.95
2022-10-05T18:17:54.892Z,13.99
2022-10-05T18:23:06.198Z,14.02
2022-10-05T18:28:12.350Z,14.04
2022-10-05T18:33:47.439Z,14.07
2022-10-05T18:38:55.483Z,14.07
2022-10-05T18:43:58.262Z,14.06
2022-10-05T18:49:25.742Z,14.01
2022-10-05T18:54:54.885Z,13.95
2022-10-05T19:00:14.332Z,13.88
2022-10-05T19:05:47.612Z,13.77
2022-10-05T19:10:56.636Z,13.63
2022-10-05T19:16:18.524Z,13.52
2022-10-05T19:21:50.961Z,13.37
2022-10-05T19:27:32.061Z,13.22
2022-10-05T19:32:46.842Z,13.13
2022-10-05T19:38:02.099Z,13.08
2022-10-05T19:43:29.846Z,13.00
2022-10-05T19:48:53.045Z,12.89
2022-10-05T19:54:25.291Z,12.84
2022-10-05T19:59:32.861Z,12.90
2022-10-05T20:04:43.411Z,13.01
2022-10-05T20:09:54.302Z,13.09
2022-10-05T20:15:26.780Z,13.18
2022-10-05T20:20:49.286Z,13.33
2022-10-05T20:26:11.606Z,13.38
2022-10-05T20:31:14.807Z,13.48
2022-10-05T20:36:17.821Z,13.59
2022-10-05T20:41:20.623Z,13.55
2022-10-05T20:46:23.613Z,13.62
2022-10-05T20:51:29.074Z,13.69
2022-10-05T20:56:34.194Z,13.67
2022-10-05T21:01:37.156Z,13.69
2022-10-05T21:07:07.404Z,13.71
2022-10-05T21:12:11.430Z,13.67
2022-10-05T21:17:14.695Z,13.65
2022-10-05T21:22:17.548Z,13.64
2022-10-05T21:27:20.449Z,13.59
2022-10-05T21:32:23.354Z,13.48
2022-10-05T21:37:26.157Z,13.53
2022-10-05T21:42:29.262Z,13.54
2022-10-05T21:47:32.373Z,13.56
2022-10-05T21:52:35.992Z,13.56
2022-10-05T21:57:39.229Z,13.55
2022-10-05T22:02:42.417Z,13.55
2022-10-05T22:07:45.326Z,13.48
2022-10-05T22:12:48.631Z,13.41
2022-10-05T22:17:51.542Z,13.38
2022-10-05T22:22:54.442Z,13.38
2022-10-05T22:27:57.378Z,13.32
2022-10-05T22:33:00.351Z,13.31
2022-10-05T22:38:04.401Z,13.30
2022-10-05T22:43:07.801Z,13.23
2022-10-05T22:48:10.712Z,13.21
2022-10-05T22:53:14.296Z,13.21
2022-10-05T22:58:17.226Z,13.20
2022-10-05T23:03:20.129Z,13.14
2022-10-05T23:08:23.035Z,13.11
2022-10-05T23:13:25.939Z,13.12
2022-10-05T23:18:29.086Z,13.03
2022-10-05T23:23:40.961Z,13.01
2022-10-05T23:28:47.356Z,12.96
2022-10-05T23:33:51.102Z,13.00
2022-10-05T23:38:54.703Z,12.97
2022-10-05T23:43:57.597Z,13.02
2022-10-05T23:49:00.497Z,13.03
2022-10-05T23:54:03.402Z,13.01
2022-10-05T23:59:06.307Z,12.96
